»·PEaware :: COA1025 MMMX-KIAH

COA1025 :: MMMX-KIAH

FLIGHT INFORMATION

Flight Status: Arrived
Operator:
Continental Air Lines
More flights by this operator :: More flights under this callsign
Pilot: Robby H. (353)
Aircraft: BOEING 767-200
(B762)
More flights by this aircraft type
Origin: MMMX Lic Benito Juarez Intl
Mexico
Destination: KIAH G Bush Intercontinental/Houst
United States
More flights between these airports :: More routes between these airports
Route: MAM BRO CRP HAMMU1
File this flight plan on PilotEdge
Remarks: / V /
Altitude:
(Current/Filed)
31,000ft
Speed:
(Current/Filed)
532kts
Departed: 27-Dec-11 06:18 PM
Arrived: 27-Dec-11 07:51 PM
Distance/Time
Traveled:
665nm/1:33
Distance/Time
To Go:
Arrived

Flight Plot

Page will automatically refresh every two minutes.


Map Options




Map Legend


Flown Route
Filed Route
Departure Airport
Arrival Airport
Navaid (VOR, NDB)
Fix

Horizontal Profiles

Position Reports

Time Latitude Longitude Heading Altitude Ground
Speed
27-Dec-11 18:11 19.430750 -99.088431 357 7328ft 0kts
27-Dec-11 18:12 19.430750 -99.088431 357 7328ft 0kts
27-Dec-11 18:13 19.430750 -99.088431 357 7328ft 0kts
27-Dec-11 18:14 19.430259 -99.088413 357 7328ft 2kts
27-Dec-11 18:15 19.429982 -99.088403 357 7328ft 0kts
27-Dec-11 18:16 19.427436 -99.092709 200 7328ft 14kts
27-Dec-11 18:17 19.429541 -99.087178 57 7328ft 89kts
27-Dec-11 18:18 19.453282 -99.045231 58 7752ft 214kts
27-Dec-11 18:19 19.503979 -98.998015 10 9354ft 286kts
27-Dec-11 18:20 19.585390 -98.980078 12 10913ft 328kts
27-Dec-11 18:21 19.701990 -98.953747 12 12124ft 407kts
27-Dec-11 18:22 19.796260 -98.932484 12 12967ft 417kts
27-Dec-11 18:23 19.910907 -98.906563 12 13973ft 420kts
27-Dec-11 18:24 20.024659 -98.880821 12 14963ft 424kts
27-Dec-11 18:25 20.141615 -98.854357 11 15972ft 428kts
27-Dec-11 18:26 20.259927 -98.827555 11 16983ft 435kts
27-Dec-11 18:27 20.377953 -98.800733 10 17973ft 443kts
27-Dec-11 18:28 20.503448 -98.772238 10 18985ft 464kts
27-Dec-11 18:29 20.630154 -98.743408 10 19983ft 471kts
27-Dec-11 18:30 20.760121 -98.713731 10 20993ft 477kts
27-Dec-11 18:31 20.890769 -98.683876 9 21998ft 482kts
27-Dec-11 18:32 21.023800 -98.653432 9 23007ft 483kts
27-Dec-11 18:33 21.154543 -98.623481 9 24005ft 482kts
27-Dec-11 18:34 21.287231 -98.593028 9 25012ft 487kts
27-Dec-11 18:35 21.419877 -98.562462 9 26011ft 491kts
27-Dec-11 18:36 21.553554 -98.531566 9 27008ft 492kts
27-Dec-11 18:37 21.687579 -98.500554 9 28012ft 491kts
27-Dec-11 18:38 21.821233 -98.469644 9 29011ft 486kts
27-Dec-11 18:39 21.952857 -98.439146 10 30000ft 479kts
27-Dec-11 18:40 22.082263 -98.409000 7 30970ft 473kts
27-Dec-11 18:41 22.211715 -98.378881 7 31328ft 481kts
27-Dec-11 18:42 22.345320 -98.347840 7 31328ft 496kts
27-Dec-11 18:43 22.481607 -98.316103 7 31323ft 506kts
27-Dec-11 18:44 22.618237 -98.284042 6 31302ft 506kts
27-Dec-11 18:45 22.757046 -98.251480 7 31303ft 506kts
27-Dec-11 18:46 22.894941 -98.219024 7 31302ft 506kts
27-Dec-11 18:47 23.034077 -98.186207 7 31301ft 506kts
27-Dec-11 18:48 23.172081 -98.153545 7 31299ft 506kts
27-Dec-11 18:49 23.309988 -98.120850 7 31300ft 506kts
27-Dec-11 18:50 23.449246 -98.087804 7 31301ft 506kts
27-Dec-11 18:51 23.562886 -98.060788 7 31302ft 506kts
27-Dec-11 18:52 23.701115 -98.027824 7 31302ft 506kts
27-Dec-11 18:53 23.838140 -97.995038 7 31303ft 506kts
27-Dec-11 18:54 23.976106 -97.961885 7 31306ft 505kts
27-Dec-11 18:55 24.114209 -97.928738 6 31308ft 505kts
27-Dec-11 18:56 24.251953 -97.895544 6 31311ft 505kts
27-Dec-11 18:57 24.388522 -97.862629 6 31311ft 504kts
27-Dec-11 18:58 24.526154 -97.829316 6 31312ft 503kts
27-Dec-11 18:59 24.660914 -97.796653 5 31310ft 503kts
27-Dec-11 19:00 24.798160 -97.763223 5 31311ft 501kts
27-Dec-11 19:01 24.935097 -97.729793 5 31311ft 499kts
27-Dec-11 19:02 25.071441 -97.696513 5 31313ft 499kts
27-Dec-11 19:03 25.207894 -97.663140 5 31313ft 500kts
27-Dec-11 19:04 25.343091 -97.629854 5 31323ft 500kts
27-Dec-11 19:05 25.479920 -97.596116 5 31326ft 500kts
27-Dec-11 19:06 25.616157 -97.562461 5 31326ft 500kts
27-Dec-11 19:07 25.749849 -97.515604 20 31334ft 512kts
27-Dec-11 19:08 25.870237 -97.428730 24 31433ft 515kts
27-Dec-11 19:09 26.005070 -97.387283 359 31305ft 496kts
27-Dec-11 19:10 26.140761 -97.382511 351 31308ft 482kts
27-Dec-11 19:11 26.274147 -97.387212 351 31306ft 479kts
27-Dec-11 19:12 26.407801 -97.392123 351 31308ft 480kts
27-Dec-11 19:13 26.542096 -97.396762 351 31310ft 480kts
27-Dec-11 19:14 26.675912 -97.401404 351 31310ft 480kts
27-Dec-11 19:15 26.809680 -97.406066 351 31304ft 476kts
27-Dec-11 19:16 26.941037 -97.410651 351 31291ft 468kts
27-Dec-11 19:17 27.070642 -97.415158 350 31286ft 461kts
27-Dec-11 19:18 27.200768 -97.420641 354 31292ft 475kts
27-Dec-11 19:19 27.334089 -97.435795 351 31284ft 474kts
27-Dec-11 19:20 27.456469 -97.450585 351 31297ft 400kts
27-Dec-11 19:21 27.561055 -97.463290 350 31282ft 375kts
27-Dec-11 19:22 27.666706 -97.476069 352 31303ft 383kts
27-Dec-11 19:23 27.772523 -97.459027 29 31451ft 394kts
27-Dec-11 19:24 27.875129 -97.404069 27 31285ft 420kts
27-Dec-11 19:25 27.985750 -97.351402 24 31286ft 441kts
27-Dec-11 19:26 28.102783 -97.297545 25 31259ft 463kts
27-Dec-11 19:27 28.207819 -97.249016 13 31212ft 478kts
27-Dec-11 19:28 28.331170 -97.192469 13 29529ft 487kts
27-Dec-11 19:29 28.459255 -97.133363 14 27822ft 492kts
27-Dec-11 19:30 28.586491 -97.074417 14 26137ft 496kts
27-Dec-11 19:31 28.713352 -97.015319 14 24446ft 485kts
27-Dec-11 19:32 28.838180 -96.957308 17 22736ft 477kts
27-Dec-11 19:33 28.958834 -96.900971 17 21054ft 467kts
27-Dec-11 19:34 29.079611 -96.844448 18 19328ft 457kts
27-Dec-11 19:35 29.188943 -96.772918 42 17540ft 451kts
27-Dec-11 19:36 29.263226 -96.657813 51 15936ft 449kts
27-Dec-11 19:37 29.336073 -96.551194 48 14297ft 436kts
27-Dec-11 19:38 29.404854 -96.440240 54 12614ft 427kts
27-Dec-11 19:39 29.456490 -96.342872 56 11171ft 413kts
27-Dec-11 19:40 29.522819 -96.212471 56 9187ft 400kts
27-Dec-11 19:41 29.569136 -96.120952 56 7765ft 392kts
27-Dec-11 19:42 29.623294 -96.013687 57 6063ft 381kts
27-Dec-11 19:43 29.675677 -95.909546 57 4365ft 372kts
27-Dec-11 19:44 29.729781 -95.801553 50 3287ft 390kts
27-Dec-11 19:45 29.784341 -95.692662 51 3281ft 391kts
27-Dec-11 19:46 29.838441 -95.584400 50 3274ft 391kts
27-Dec-11 19:47 29.904319 -95.505540 10 4481ft 264kts
27-Dec-11 19:48 29.954582 -95.443620 56 2374ft 281kts
27-Dec-11 19:49 29.990231 -95.378530 66 614ft 219kts
27-Dec-11 19:50 29.993065 -95.327032 118 109ft 0kts

Navigation Log

Ident Type
Flight plan parsing failed, navigation log unavailable